EGUL - Lakenheath Royal AFB
Distance from station: E 5mi, 14km
Updated: 02/22/2018 7:56pm
Clear
Clear
 Wind from NNE
Wind: NNE 6 mph , 9 km/h
Temperature: 28°F , -2°C
Wind Chill: 21°F , -6°C
Dew Point: 28°F , -2°C
Humidity: 100%
Barometer: 30.20 inHg , 1022.7 hPa
Clouds: Clear
Visibility: 6 miles , 10 km
2018/02/23 03:56 EGUL 230356Z AUTO 03005KT 9999 CLR M02/M02 A3020 RMK AO2 SLP230 T10221022